createdAt,value
2022-09-28T00:02:24.324Z,7.93
2022-09-28T00:04:50.923Z,7.90
2022-09-28T00:07:17.403Z,7.91
2022-09-28T00:09:43.944Z,7.90
2022-09-28T00:12:11.776Z,7.88
2022-09-28T00:14:40.497Z,7.90
2022-09-28T00:17:08.250Z,7.86
2022-09-28T00:19:34.732Z,7.87
2022-09-28T00:22:01.228Z,7.86
2022-09-28T00:24:29.522Z,7.71
2022-09-28T00:26:58.054Z,7.86
2022-09-28T00:29:33.826Z,7.70
2022-09-28T00:32:06.663Z,7.86
2022-09-28T00:34:39.927Z,7.84
2022-09-28T00:37:08.884Z,7.86
2022-09-28T00:39:37.349Z,7.86
2022-09-28T00:42:10.999Z,7.84
2022-09-28T00:44:37.474Z,7.85
2022-09-28T00:47:08.818Z,7.79
2022-09-28T00:49:48.899Z,7.78
2022-09-28T00:52:37.693Z,7.61
2022-09-28T00:55:08.594Z,7.77
2022-09-28T00:57:36.932Z,7.71
2022-09-28T01:00:05.152Z,7.56
2022-09-28T01:02:32.002Z,7.71
2022-09-28T01:04:59.623Z,7.63
2022-09-28T01:07:26.575Z,7.59
2022-09-28T01:09:54.162Z,7.62
2022-09-28T01:12:20.681Z,7.55
2022-09-28T01:14:48.519Z,7.58
2022-09-28T01:17:17.822Z,7.54
2022-09-28T01:19:56.436Z,7.49
2022-09-28T01:22:45.725Z,7.46
2022-09-28T01:25:29.419Z,7.28
2022-09-28T01:28:25.732Z,7.39
2022-09-28T01:31:09.671Z,7.36
2022-09-28T01:33:50.114Z,7.31
2022-09-28T01:36:28.167Z,7.27
2022-09-28T01:39:13.361Z,7.25
2022-09-28T01:41:43.934Z,7.28
2022-09-28T01:44:16.349Z,7.23
2022-09-28T01:46:47.142Z,7.24
2022-09-28T01:49:22.149Z,7.22
2022-09-28T01:52:13.058Z,7.22
2022-09-28T01:54:46.935Z,7.22
2022-09-28T01:57:37.685Z,7.17
2022-09-28T02:00:12.186Z,7.20
2022-09-28T02:03:01.531Z,7.17
2022-09-28T02:05:33.791Z,7.17
2022-09-28T02:08:32.154Z,7.13
2022-09-28T02:11:15.827Z,7.14
2022-09-28T02:14:04.282Z,7.12
2022-09-28T02:16:36.811Z,7.11
2022-09-28T02:19:05.229Z,7.09
2022-09-28T02:21:41.148Z,7.10
2022-09-28T02:24:19.349Z,7.07
2022-09-28T02:26:49.848Z,6.98
2022-09-28T02:29:16.750Z,6.88
2022-09-28T02:31:44.001Z,7.01
2022-09-28T02:34:10.555Z,6.91
2022-09-28T02:36:37.266Z,6.96
2022-09-28T02:39:03.875Z,6.97
2022-09-28T02:41:54.889Z,6.91
2022-09-28T02:44:34.082Z,6.84
2022-09-28T02:47:08.969Z,6.84
2022-09-28T02:50:06.315Z,6.84
2022-09-28T02:53:00.027Z,6.80
2022-09-28T02:55:45.360Z,6.80
2022-09-28T02:58:36.668Z,6.74
2022-09-28T03:01:28.903Z,6.56
2022-09-28T03:04:05.229Z,6.70
2022-09-28T03:06:46.829Z,6.68
2022-09-28T03:09:20.385Z,6.65
2022-09-28T03:11:52.159Z,6.61
2022-09-28T03:14:19.321Z,6.57
2022-09-28T03:16:46.565Z,6.54
2022-09-28T03:19:13.945Z,6.52
2022-09-28T03:21:41.293Z,6.49
2022-09-28T03:24:11.120Z,6.47
2022-09-28T03:26:40.671Z,6.46
2022-09-28T03:29:07.309Z,6.45
2022-09-28T03:31:34.556Z,6.44
2022-09-28T03:34:01.111Z,6.41
2022-09-28T03:36:27.714Z,6.37
2022-09-28T03:38:57.036Z,6.33
2022-09-28T03:41:30.049Z,6.30
2022-09-28T03:43:56.632Z,6.30
2022-09-28T03:46:23.084Z,6.29
2022-09-28T03:48:49.538Z,6.30
2022-09-28T03:51:16.115Z,6.26
2022-09-28T03:53:42.669Z,6.13
2022-09-28T03:56:13.294Z,6.25
2022-09-28T03:58:40.048Z,6.23
2022-09-28T04:01:16.493Z,6.21
2022-09-28T04:03:44.003Z,6.20
2022-09-28T04:06:10.971Z,6.13
2022-09-28T04:08:37.471Z,6.16
2022-09-28T04:11:04.368Z,6.10
2022-09-28T04:13:31.473Z,6.02
2022-09-28T04:16:00.320Z,6.02
2022-09-28T04:18:28.588Z,5.96
2022-09-28T04:21:21.578Z,5.95
2022-09-28T04:23:48.945Z,5.90
2022-09-28T04:26:33.531Z,5.84
2022-09-28T04:29:19.022Z,5.80
2022-09-28T04:31:47.157Z,5.74
2022-09-28T04:34:17.323Z,5.71
2022-09-28T04:36:44.922Z,5.68
2022-09-28T04:39:19.108Z,5.64
2022-09-28T04:41:47.809Z,5.59
2022-09-28T04:44:15.027Z,5.54
2022-09-28T04:46:41.554Z,5.53
2022-09-28T04:49:10.024Z,5.47
2022-09-28T04:51:36.562Z,5.43
2022-09-28T04:54:03.121Z,5.40
2022-09-28T04:56:29.738Z,5.22
2022-09-28T04:58:56.238Z,5.32
2022-09-28T05:01:24.178Z,5.29
2022-09-28T05:03:53.512Z,5.28
2022-09-28T05:06:20.149Z,5.16
2022-09-28T05:08:47.107Z,5.23
2022-09-28T05:11:14.646Z,5.19
2022-09-28T05:13:45.201Z,5.17
2022-09-28T05:16:13.398Z,5.16
2022-09-28T05:18:39.942Z,5.14
2022-09-28T05:21:14.276Z,5.07
2022-09-28T05:23:45.634Z,5.09
2022-09-28T05:26:12.111Z,5.05
2022-09-28T05:28:38.810Z,5.03
2022-09-28T05:31:05.687Z,4.84
2022-09-28T05:33:33.129Z,4.97
2022-09-28T05:36:01.485Z,4.98
2022-09-28T05:38:28.609Z,4.85
2022-09-28T05:40:55.180Z,4.98
2022-09-28T05:43:21.826Z,4.97
2022-09-28T05:45:51.624Z,4.98
2022-09-28T05:48:20.917Z,4.96
2022-09-28T05:50:52.387Z,4.90
2022-09-28T05:53:19.253Z,4.88
2022-09-28T05:55:45.759Z,4.85
2022-09-28T05:58:12.365Z,4.83
2022-09-28T06:00:38.837Z,4.82
2022-09-28T06:03:09.100Z,4.76
2022-09-28T06:05:37.490Z,4.76
2022-09-28T06:08:05.819Z,4.74
2022-09-28T06:10:33.165Z,4.76
2022-09-28T06:12:59.846Z,4.76
2022-09-28T06:15:28.937Z,4.76
2022-09-28T06:18:00.214Z,4.73
2022-09-28T06:20:29.049Z,4.75
2022-09-28T06:22:55.804Z,4.75
2022-09-28T06:25:23.765Z,4.60
2022-09-28T06:27:58.545Z,4.75
2022-09-28T06:30:27.206Z,4.73
2022-09-28T06:32:55.465Z,4.76
2022-09-28T06:35:26.079Z,4.79
2022-09-28T06:37:53.709Z,4.76
2022-09-28T06:40:21.940Z,4.83
2022-09-28T06:43:03.573Z,4.84
2022-09-28T06:45:30.529Z,4.76
2022-09-28T06:47:59.136Z,4.96
2022-09-28T06:50:37.653Z,4.97
2022-09-28T06:53:09.559Z,5.04
2022-09-28T06:55:40.074Z,5.09
2022-09-28T06:58:10.593Z,5.15
2022-09-28T07:00:38.962Z,5.24
2022-09-28T07:03:09.168Z,5.27
2022-09-28T07:05:37.081Z,5.33
2022-09-28T07:08:07.678Z,5.37
2022-09-28T07:10:34.322Z,5.40
2022-09-28T07:13:05.244Z,5.56
2022-09-28T07:15:32.762Z,5.61
2022-09-28T07:18:03.448Z,5.71
2022-09-28T07:20:32.208Z,5.66
2022-09-28T07:23:15.488Z,5.90
2022-09-28T07:25:48.789Z,5.96
2022-09-28T07:28:17.267Z,6.13
2022-09-28T07:30:46.703Z,6.27
2022-09-28T07:33:15.936Z,6.54
2022-09-28T07:35:51.031Z,6.75
2022-09-28T07:38:17.727Z,6.83
2022-09-28T07:41:02.550Z,6.97
2022-09-28T07:43:29.207Z,7.22
2022-09-28T07:45:55.777Z,7.44
2022-09-28T07:48:23.042Z,7.61
2022-09-28T07:50:55.095Z,7.77
2022-09-28T07:53:24.139Z,7.99
2022-09-28T07:55:52.330Z,8.14
2022-09-28T07:58:20.306Z,8.41
2022-09-28T08:00:48.571Z,8.61
2022-09-28T08:03:21.812Z,8.80
2022-09-28T08:05:48.639Z,8.86
2022-09-28T08:08:15.650Z,9.18
2022-09-28T08:10:46.850Z,9.38
2022-09-28T08:13:15.274Z,9.55
2022-09-28T08:15:42.523Z,9.72
2022-09-28T08:18:09.551Z,9.80
2022-09-28T08:20:54.756Z,9.94
2022-09-28T08:23:21.290Z,10.07
2022-09-28T08:25:49.086Z,10.21
2022-09-28T08:28:20.260Z,10.37
2022-09-28T08:30:47.697Z,10.50
2022-09-28T08:33:16.131Z,10.61
2022-09-28T08:35:42.612Z,10.75
2022-09-28T08:38:09.730Z,10.88
2022-09-28T08:41:03.879Z,11.08
2022-09-28T08:43:48.265Z,11.30
2022-09-28T08:46:20.840Z,11.31
2022-09-28T08:52:03.461Z,11.45
2022-09-28T08:55:02.470Z,11.50
2022-09-28T08:57:46.078Z,11.56
2022-09-28T09:00:21.000Z,11.67
2022-09-28T09:02:48.699Z,11.80
2022-09-28T09:05:19.994Z,11.70
2022-09-28T09:08:13.989Z,12.04
2022-09-28T09:10:51.084Z,12.13
2022-09-28T09:13:51.713Z,12.26
2022-09-28T09:16:24.244Z,12.49
2022-09-28T09:19:09.121Z,12.75
2022-09-28T09:21:41.706Z,12.75
2022-09-28T09:24:31.242Z,12.88
2022-09-28T09:27:32.646Z,13.13
2022-09-28T09:30:18.928Z,13.21
2022-09-28T09:33:30.632Z,13.25
2022-09-28T09:36:09.335Z,13.34
2022-09-28T09:38:58.101Z,13.43
2022-09-28T09:41:36.753Z,13.55
2022-09-28T09:44:29.257Z,13.59
2022-09-28T09:47:14.853Z,13.64
2022-09-28T09:49:56.038Z,13.95
2022-09-28T09:52:22.553Z,14.29
2022-09-28T09:55:00.294Z,14.38
2022-09-28T09:57:32.080Z,14.46
2022-09-28T10:00:00.449Z,14.53
2022-09-28T10:02:34.424Z,14.86
2022-09-28T10:05:07.531Z,14.91
2022-09-28T10:07:56.179Z,15.10
2022-09-28T10:10:33.979Z,15.31
2022-09-28T10:13:00.464Z,15.42
2022-09-28T10:15:32.465Z,15.69
2022-09-28T10:18:03.547Z,15.97
2022-09-28T10:20:34.750Z,16.17
2022-09-28T10:23:04.790Z,16.27
2022-09-28T10:25:38.011Z,16.33
2022-09-28T10:28:14.312Z,16.55
2022-09-28T10:30:42.777Z,16.72
2022-09-28T10:33:29.494Z,16.71
2022-09-28T10:35:57.065Z,16.56
2022-09-28T10:38:24.564Z,16.27
2022-09-28T10:40:58.353Z,16.03
2022-09-28T10:43:38.571Z,16.00
2022-09-28T10:46:11.053Z,16.24
2022-09-28T10:49:07.979Z,16.05
2022-09-28T10:51:41.973Z,15.96
2022-09-28T10:54:16.582Z,16.30
2022-09-28T10:56:43.939Z,16.57
2022-09-28T10:59:29.694Z,16.51
2022-09-28T11:02:03.118Z,16.37
2022-09-28T11:04:38.677Z,16.19
2022-09-28T11:07:17.253Z,16.16
2022-09-28T11:09:48.767Z,15.88
2022-09-28T11:12:19.575Z,15.94
2022-09-28T11:14:48.777Z,15.74
2022-09-28T11:17:21.296Z,15.65
2022-09-28T11:19:47.789Z,15.42
2022-09-28T11:22:32.839Z,15.30
2022-09-28T11:25:16.291Z,15.15
2022-09-28T11:27:56.461Z,15.03
2022-09-28T11:30:25.038Z,15.01
2022-09-28T11:33:05.008Z,14.97
2022-09-28T11:35:36.989Z,15.01
2022-09-28T11:38:28.659Z,15.05
2022-09-28T11:41:08.718Z,14.91
2022-09-28T11:44:04.416Z,15.01
2022-09-28T11:46:44.207Z,15.00
2022-09-28T11:49:19.723Z,15.05
2022-09-28T11:51:51.371Z,15.05
2022-09-28T11:54:31.391Z,14.92
2022-09-28T11:57:01.271Z,15.04
2022-09-28T11:59:36.820Z,15.00
2022-09-28T12:02:15.576Z,14.99
2022-09-28T12:04:46.995Z,14.88
2022-09-28T12:07:23.341Z,14.87
2022-09-28T12:10:12.008Z,14.83
2022-09-28T12:13:01.025Z,14.65
2022-09-28T12:16:23.312Z,14.76
2022-09-28T12:19:08.045Z,14.79
2022-09-28T12:21:40.491Z,14.70
2022-09-28T12:24:13.025Z,14.61
2022-09-28T12:26:49.890Z,14.83
2022-09-28T12:29:55.516Z,14.79
2022-09-28T12:32:40.517Z,14.92
2022-09-28T12:35:32.525Z,14.98
2022-09-28T12:38:28.570Z,15.10
2022-09-28T12:41:03.323Z,15.36
2022-09-28T12:43:40.579Z,15.69
2022-09-28T12:46:22.062Z,15.91
2022-09-28T12:49:43.667Z,16.10
2022-09-28T12:51:50.470Z,16.23
2022-09-28T12:54:56.491Z,16.47
2022-09-28T12:58:11.610Z,16.70
2022-09-28T13:00:57.361Z,16.66
2022-09-28T13:03:48.306Z,16.50
2022-09-28T13:07:00.201Z,16.42
2022-09-28T13:09:31.398Z,16.38
2022-09-28T13:12:13.240Z,16.44
2022-09-28T13:15:08.747Z,16.50
2022-09-28T13:17:56.873Z,16.53
2022-09-28T13:20:48.209Z,16.48
2022-09-28T13:23:20.735Z,16.61
2022-09-28T13:25:55.677Z,16.80
2022-09-28T13:28:27.232Z,16.75
2022-09-28T13:33:38.381Z,16.74
2022-09-28T13:36:27.857Z,16.50
2022-09-28T13:38:56.727Z,16.37
2022-09-28T13:41:32.102Z,16.36
2022-09-28T13:44:10.897Z,16.31
2022-09-28T13:46:46.484Z,16.24
2022-09-28T13:49:31.138Z,16.09
2022-09-28T13:52:29.882Z,16.12
2022-09-28T13:55:23.339Z,16.29
2022-09-28T13:58:11.717Z,16.45
2022-09-28T14:00:47.058Z,16.50
2022-09-28T14:03:21.199Z,16.61
2022-09-28T14:06:08.038Z,16.73
2022-09-28T14:08:38.945Z,16.91
2022-09-28T14:11:26.957Z,17.08
2022-09-28T14:14:05.410Z,17.27
2022-09-28T14:16:34.032Z,17.34
2022-09-28T14:19:07.230Z,17.32
2022-09-28T14:21:42.835Z,17.22
2022-09-28T14:24:18.665Z,17.00
2022-09-28T14:26:53.812Z,16.75
2022-09-28T14:29:29.362Z,16.72
2022-09-28T14:32:24.468Z,16.64
2022-09-28T14:35:00.780Z,16.54
2022-09-28T14:38:00.476Z,16.46
2022-09-28T14:40:50.997Z,16.55
2022-09-28T14:43:42.920Z,16.52
2022-09-28T14:46:15.593Z,16.50
2022-09-28T14:48:47.855Z,16.46
2022-09-28T14:51:26.420Z,16.44
2022-09-28T14:53:54.658Z,16.55
2022-09-28T14:56:22.289Z,16.83
2022-09-28T14:58:54.979Z,17.20
2022-09-28T15:01:24.659Z,17.47
2022-09-28T15:04:04.659Z,17.83
2022-09-28T15:06:46.026Z,18.10
2022-09-28T15:09:27.873Z,18.39
2022-09-28T15:12:02.425Z,18.64
2022-09-28T15:14:32.868Z,18.89
2022-09-28T15:17:02.881Z,19.04
2022-09-28T15:19:53.307Z,19.22
2022-09-28T15:22:20.963Z,19.13
2022-09-28T15:25:01.332Z,19.09
2022-09-28T15:27:36.876Z,19.02
2022-09-28T15:30:25.444Z,18.95
2022-09-28T15:32:54.670Z,18.74
2022-09-28T15:35:26.524Z,18.55
2022-09-28T15:37:55.180Z,18.44
2022-09-28T15:40:32.401Z,18.25
2022-09-28T15:42:59.720Z,17.98
2022-09-28T15:45:37.086Z,17.77
2022-09-28T15:48:26.198Z,17.58
2022-09-28T15:50:59.969Z,17.33
2022-09-28T15:53:26.841Z,17.18
2022-09-28T15:56:03.530Z,17.01
2022-09-28T15:58:29.997Z,16.89
2022-09-28T16:01:36.066Z,16.75
2022-09-28T16:04:40.544Z,16.54
2022-09-28T16:07:10.116Z,16.37
2022-09-28T16:09:55.425Z,16.26
2022-09-28T16:12:22.585Z,16.14
2022-09-28T16:14:52.065Z,16.04
2022-09-28T16:17:31.576Z,15.90
2022-09-28T16:20:03.749Z,15.75
2022-09-28T16:22:34.014Z,15.68
2022-09-28T16:25:01.435Z,15.52
2022-09-28T16:27:40.347Z,15.44
2022-09-28T16:30:28.779Z,15.07
2022-09-28T16:33:19.620Z,15.16
2022-09-28T16:35:50.916Z,15.15
2022-09-28T16:38:18.701Z,15.05
2022-09-28T16:40:49.459Z,15.00
2022-09-28T16:43:30.989Z,14.91
2022-09-28T16:46:01.166Z,14.84
2022-09-28T16:48:30.503Z,14.75
2022-09-28T16:50:57.968Z,14.64
2022-09-28T16:53:44.041Z,14.61
2022-09-28T16:56:12.172Z,14.49
2022-09-28T16:58:39.067Z,14.42
2022-09-28T17:01:09.316Z,14.31
2022-09-28T17:03:36.074Z,14.23
2022-09-28T17:06:04.323Z,14.17
2022-09-28T17:08:32.618Z,14.08
2022-09-28T17:11:23.357Z,14.04
2022-09-28T17:13:48.675Z,13.95
2022-09-28T17:16:32.628Z,13.88
2022-09-28T17:19:23.174Z,13.77
2022-09-28T17:21:51.258Z,13.73
2022-09-28T17:24:19.317Z,13.61
2022-09-28T17:26:47.609Z,13.56
2022-09-28T17:29:15.228Z,13.47
2022-09-28T17:31:43.327Z,13.40
2022-09-28T17:34:11.965Z,13.32
2022-09-28T17:36:40.624Z,13.19
2022-09-28T17:39:11.466Z,12.96
2022-09-28T17:41:37.943Z,12.97
2022-09-28T17:44:04.508Z,12.94
2022-09-28T17:46:33.745Z,12.88
2022-09-28T17:49:02.616Z,12.80
2022-09-28T17:51:32.243Z,12.70
2022-09-28T17:54:00.978Z,12.59
2022-09-28T17:56:32.162Z,12.52
2022-09-28T17:59:01.321Z,12.32
2022-09-28T18:01:33.705Z,12.35
2022-09-28T18:04:05.102Z,12.27
2022-09-28T18:06:33.775Z,12.10
2022-09-28T18:09:02.855Z,12.11
2022-09-28T18:11:30.602Z,12.02
2022-09-28T18:13:57.110Z,11.97
2022-09-28T18:16:23.775Z,11.87
2022-09-28T18:18:50.267Z,11.82
2022-09-28T18:21:16.829Z,11.72
2022-09-28T18:23:43.403Z,11.66
2022-09-28T18:26:16.721Z,11.58
2022-09-28T18:28:43.213Z,11.49
2022-09-28T18:31:11.893Z,11.44
2022-09-28T18:33:38.937Z,11.36
2022-09-28T18:36:06.891Z,11.28
2022-09-28T18:38:37.384Z,11.05
2022-09-28T18:41:13.384Z,11.11
2022-09-28T18:43:40.412Z,11.06
2022-09-28T18:46:11.268Z,10.93
2022-09-28T18:48:40.587Z,10.90
2022-09-28T18:51:11.864Z,10.76
2022-09-28T18:53:39.485Z,10.76
2022-09-28T18:56:08.107Z,10.58
2022-09-28T18:58:44.233Z,10.61
2022-09-28T19:01:33.744Z,10.51
2022-09-28T19:04:01.659Z,10.45
2022-09-28T19:06:28.574Z,10.38
2022-09-28T19:08:55.975Z,10.33
2022-09-28T19:11:22.716Z,10.21
2022-09-28T19:13:49.258Z,10.19
2022-09-28T19:16:18.260Z,10.12
2022-09-28T19:18:45.020Z,10.05
2022-09-28T19:21:14.188Z,9.97
2022-09-28T19:23:46.876Z,9.90
2022-09-28T19:26:21.519Z,9.84
2022-09-28T19:28:48.733Z,9.56
2022-09-28T19:31:15.970Z,9.73
2022-09-28T19:33:42.901Z,9.69
2022-09-28T19:36:13.168Z,9.62
2022-09-28T19:38:40.692Z,9.55
2022-09-28T19:41:39.400Z,9.32
2022-09-28T19:44:29.748Z,9.41
2022-09-28T19:46:58.744Z,9.20
2022-09-28T19:49:27.301Z,9.29
2022-09-28T19:52:12.710Z,8.99
2022-09-28T19:54:43.620Z,9.04
2022-09-28T19:57:11.168Z,9.19
2022-09-28T19:59:37.777Z,9.06
2022-09-28T20:02:08.536Z,9.10
2022-09-28T20:04:35.217Z,8.91
2022-09-28T20:07:02.698Z,9.05
2022-09-28T20:09:29.547Z,9.03
2022-09-28T20:11:56.298Z,9.00
2022-09-28T20:14:24.592Z,8.96
2022-09-28T20:16:54.818Z,8.92
2022-09-28T20:19:23.055Z,8.92
2022-09-28T20:21:50.408Z,8.88
2022-09-28T20:24:17.343Z,8.81
2022-09-28T20:26:45.653Z,8.80
2022-09-28T20:29:12.688Z,8.77
2022-09-28T20:31:39.339Z,8.56
2022-09-28T20:34:06.752Z,8.72
2022-09-28T20:36:33.840Z,8.65
2022-09-28T20:39:04.239Z,8.52
2022-09-28T20:41:36.783Z,8.48
2022-09-28T20:44:06.399Z,8.61
2022-09-28T20:46:35.270Z,8.57
2022-09-28T20:49:02.430Z,8.54
2022-09-28T20:51:29.011Z,8.50
2022-09-28T20:53:57.594Z,8.44
2022-09-28T20:56:26.551Z,8.40
2022-09-28T20:58:53.649Z,8.34
2022-09-28T21:01:22.964Z,8.32
2022-09-28T21:03:55.125Z,8.27
2022-09-28T21:06:24.303Z,8.18
2022-09-28T21:08:51.073Z,8.14
2022-09-28T21:11:20.701Z,7.83
2022-09-28T21:13:47.969Z,8.07
2022-09-28T21:16:16.361Z,8.02
2022-09-28T21:18:42.972Z,7.84
2022-09-28T21:21:13.979Z,7.93
2022-09-28T21:23:40.896Z,7.88
2022-09-28T21:26:09.660Z,7.84
2022-09-28T21:28:37.277Z,7.77
2022-09-28T21:31:10.204Z,7.75
2022-09-28T21:33:37.277Z,7.63
2022-09-28T21:36:06.269Z,7.64
2022-09-28T21:38:33.266Z,7.56
2022-09-28T21:41:00.399Z,7.54
2022-09-28T21:43:28.781Z,7.53
2022-09-28T21:45:56.276Z,7.49
2022-09-28T21:48:24.633Z,7.46
2022-09-28T21:51:13.672Z,7.41
2022-09-28T21:53:40.486Z,7.37
2022-09-28T21:56:09.732Z,7.36
2022-09-28T21:58:36.662Z,7.30
2022-09-28T22:01:25.422Z,7.29
2022-09-28T22:03:54.647Z,7.22
2022-09-28T22:06:23.670Z,7.19
2022-09-28T22:08:50.922Z,7.18
2022-09-28T22:11:20.179Z,7.13
2022-09-28T22:13:55.553Z,7.08
2022-09-28T22:16:25.395Z,7.04
2022-09-28T22:18:52.651Z,6.98
2022-09-28T22:21:34.549Z,6.92
2022-09-28T22:24:03.336Z,6.93
2022-09-28T22:26:32.176Z,6.88
2022-09-28T22:29:01.408Z,6.68
2022-09-28T22:31:30.852Z,6.81
2022-09-28T22:33:57.902Z,6.77
2022-09-28T22:36:25.863Z,6.76
2022-09-28T22:38:53.986Z,6.69
2022-09-28T22:41:20.885Z,6.68
2022-09-28T22:43:52.365Z,6.66
2022-09-28T22:46:24.118Z,6.64
2022-09-28T22:48:56.358Z,6.61
2022-09-28T22:51:24.668Z,6.49
2022-09-28T22:53:51.350Z,6.55
2022-09-28T22:56:19.187Z,6.53
2022-09-28T22:58:46.264Z,6.49
2022-09-28T23:01:17.824Z,6.47
2022-09-28T23:03:45.237Z,6.46
2022-09-28T23:06:14.169Z,6.43
2022-09-28T23:08:40.675Z,6.39
2022-09-28T23:11:07.270Z,6.37
2022-09-28T23:13:35.044Z,6.34
2022-09-28T23:16:04.493Z,6.25
2022-09-28T23:18:35.809Z,6.26
2022-09-28T23:21:06.109Z,6.21
2022-09-28T23:23:33.358Z,6.18
2022-09-28T23:26:00.208Z,5.90
2022-09-28T23:28:27.365Z,6.11
2022-09-28T23:30:54.040Z,6.10
2022-09-28T23:33:21.350Z,6.09
2022-09-28T23:35:47.956Z,6.07
2022-09-28T23:38:20.288Z,6.00
2022-09-28T23:40:47.431Z,6.00
2022-09-28T23:43:14.389Z,6.01
2022-09-28T23:45:42.754Z,5.97
2022-09-28T23:48:09.631Z,5.95
2022-09-28T23:50:36.114Z,5.81
2022-09-28T23:53:02.590Z,5.84
2022-09-28T23:55:29.287Z,5.81
2022-09-28T23:57:56.669Z,5.77
